Des Moines, IA (50322)

8:15 AM CST on February 28, 2015 (GMT -0600)
Chipmunk and Squirrel Railroad | Change Station
CLOSE
Current Station
Personal Weather Station
Location: Urbandale, IA
Elevation: 957 ft
Nearby Weather Stations

Elev 957 ft 41.63 °N, 93.75 °W | Updated 5 seconds ago

Mostly Cloudy
Mostly Cloudy
7.4 °F
Feels Like 7 °F
N
3.0
Wind Variable Wind from SE
Gusts 5.0 mph

Today
High -- | Low -- °F
--% Chance of Precip.
Yesterday
High -- | Low -- °F
Precip. -- in
6:51 AM 6:04 PM
Waxing Gibbous, 77% visible
Pressure 30.63 in
Visibility 10.0 miles
Clouds Few 20000 ft
Windchill 7 °F
Dew Point 2 °F
Humidity 80%
Rainfall 0.00 in
Snow Depth Not available.
UV 0 out of 12
Pollen .50 out of 12
Air Quality Not available.
Flu Activity Not available.
METAR KDSM 281354Z 14007KT 10SM FEW200 M16/M20 A3056 RMK AO2 SLP372 T11561200

More Conditions Fewer Conditions

Pressure 30.63 in
Visibility 10.0 miles
Clouds Few 20000 ft
Windchill 7 °F
Dew Point 2 °F
Humidity 80%
Rainfall 0.00 in
Snow Depth Not available.
UV 0 out of 12
Pollen .50 out of 12
Air Quality Not available.
Flu Activity Not available.
METAR KDSM 281354Z 14007KT 10SM FEW200 M16/M20 A3056 RMK AO2 SLP372 T11561200

More Conditions Fewer Conditions

10-Day Weather Forecast

Almanac

Astronomy

Feb. 28, 2015 Rise Set
Actual Time
Civil Twilight
Nautical Twilight
Astronomical Twilight
Moon
Length of Visible Light
Length of Day
Tomorrow will be .
, % of the Moon is Illuminated

Today's Extremes

State Highs State Lows

Community

WunderPhotos

Upload Photos

1,801,021 photos uploaded!

WunderBlogs® & News

Nearby

Air Quality

  Air Quality AQ Index Pollutant
Not available.

Snow Depth

Station Depth Elevation

Earthquake Activity

City Distance Mag. Time & Date
Minimum magnitude displayed is 2.5.

Coastal Water Temperatures

Place Temperature

Nearby Weather Stations